Borkum, Germany

10:38 PM CET am 24. Februar 2017 (GMT +0100)
Krummer Blockweg | | Change Station

Höhe 16 ft 53.58 °N, 6.69 °E | Updated 1 minute ago

Heiter
Heiter
41.0 °F
gefühlte 39 °F
N
3.1
Wind Wechselnd Wind aus West
Gusts 5.6 mph

Heute
Max. -- | schwach -- °F
--% Regenrisiko
Gestern
Max. -- | schwach -- °F
Precip. -- inch
Druck 30.06 inch
Sichtweite 6.2 Meilen
Wolken
Windchill 39 °F
Taupunkt 36 °F
Feuchtigkeit 81%
Regen 0.03 inch
Schneehöhe Nicht verfügbar..
7:32 AM 6:01 PM
Letztes Viertel, 3% visible
METAR EHGG 242125Z AUTO 23007KT 9999 NCD M01/M02 Q1018 NOSIG
Druck 30.06 inch
Sichtweite 6.2 Meilen
Wolken
Windchill 39 °F
Taupunkt 36 °F
Feuchtigkeit 81%
Regen 0.03 inch
Schneehöhe Nicht verfügbar..
7:32 AM 6:01 PM
Letztes Viertel, 3% visible
METAR EHGG 242125Z AUTO 23007KT 9999 NCD M01/M02 Q1018 NOSIG

Get Your Daily Forecast Email!

Thanks for signing up!

Be on the lookout for a verification email in your inbox.

You'll start receiving the daily forecast at 8 AM.

×

10-Day Weather Forecast

×

Almanac

Astronomie

Feb. 24, 2017 Aufgang Untergang
Genaue Zeit
Bürgerliche Dämmerung
Nautische Dämmerung
Astronomische Dämmerung
Mond
Länge des sichtbaren Lichts
Tageslänge
Tomorrow will be .
, % of the Moon is Illuminated

Heutige Rekorde

Country Highs Country Lows

Community

WunderPhotos

Upload Photos

1,962,540 Fotos hochgeladen!

WunderBlog® & News

Nearby

Luftqualität

  Luftqualität LQ Index Schadstoff
Not available.

Schneehöhe

Station Depth Höhe

Erdbebenaktivität

Stadt Distance Mag. Time & Date
Minimum magnitude displayed is 2.5.

küstennahe Wassertemperaturen

Ort Temperatur

Stations

Wetterstationen in der Umgebung

Stationsstandort Temp. Windchill Taupunkt Feuchtigkeit Wind Precip. Höhe Aktualisiert Art